sensor_id;sensor_type;location;lat;lon;timestamp;pressure;altitude;pressure_sealevel;temperature;humidity
20620;BME280;10469;42.720;23.252;2023-01-31T00:01:37;94453.53;;;-1.07;100.00
20620;BME280;10469;42.720;23.252;2023-01-31T00:04:05;94450.88;;;-1.07;100.00
20620;BME280;10469;42.720;23.252;2023-01-31T00:06:33;94455.88;;;-1.12;100.00
20620;BME280;10469;42.720;23.252;2023-01-31T00:09:00;94442.56;;;-1.19;100.00
20620;BME280;10469;42.720;23.252;2023-01-31T00:11:28;94432.88;;;-1.18;100.00
20620;BME280;10469;42.720;23.252;2023-01-31T00:13:54;94452.50;;;-1.06;100.00
20620;BME280;10469;42.720;23.252;2023-01-31T00:16:21;94457.66;;;-1.13;100.00
20620;BME280;10469;42.720;23.252;2023-01-31T00:18:46;94447.59;;;-1.09;100.00
20620;BME280;10469;42.720;23.252;2023-01-31T00:21:14;94459.47;;;-1.13;100.00
20620;BME280;10469;42.720;23.252;2023-01-31T00:23:41;94448.38;;;-1.23;100.00
20620;BME280;10469;42.720;23.252;2023-01-31T00:26:23;94449.88;;;-1.06;100.00
20620;BME280;10469;42.720;23.252;2023-01-31T00:28:51;94439.06;;;-1.11;100.00
20620;BME280;10469;42.720;23.252;2023-01-31T00:31:17;94445.56;;;-0.99;100.00
20620;BME280;10469;42.720;23.252;2023-01-31T00:33:45;94454.16;;;-1.05;100.00
20620;BME280;10469;42.720;23.252;2023-01-31T00:36:20;94430.47;;;-1.05;100.00
20620;BME280;10469;42.720;23.252;2023-01-31T00:38:50;94428.19;;;-1.08;100.00
20620;BME280;10469;42.720;23.252;2023-01-31T00:41:17;94448.31;;;-1.15;100.00
20620;BME280;10469;42.720;23.252;2023-01-31T00:43:43;94435.91;;;-1.07;100.00
20620;BME280;10469;42.720;23.252;2023-01-31T00:46:08;94439.06;;;-1.11;100.00
20620;BME280;10469;42.720;23.252;2023-01-31T00:48:34;94434.72;;;-1.04;100.00
20620;BME280;10469;42.720;23.252;2023-01-31T00:50:59;94434.63;;;-1.11;100.00
20620;BME280;10469;42.720;23.252;2023-01-31T00:53:24;94443.28;;;-1.02;100.00
20620;BME280;10469;42.720;23.252;2023-01-31T00:55:54;94450.69;;;-1.06;100.00
20620;BME280;10469;42.720;23.252;2023-01-31T00:58:20;94450.00;;;-0.77;100.00
20620;BME280;10469;42.720;23.252;2023-01-31T01:00:46;94452.63;;;-0.77;100.00
20620;BME280;10469;42.720;23.252;2023-01-31T01:03:13;94465.53;;;-0.67;100.00
20620;BME280;10469;42.720;23.252;2023-01-31T01:05:39;94457.41;;;-0.80;100.00
20620;BME280;10469;42.720;23.252;2023-01-31T01:08:04;94463.69;;;-0.81;100.00
20620;BME280;10469;42.720;23.252;2023-01-31T01:10:30;94462.78;;;-0.73;100.00
20620;BME280;10469;42.720;23.252;2023-01-31T01:12:55;94458.69;;;-0.76;100.00
20620;BME280;10469;42.720;23.252;2023-01-31T01:15:21;94454.19;;;-0.53;100.00
20620;BME280;10469;42.720;23.252;2023-01-31T01:17:46;94449.19;;;-0.62;100.00
20620;BME280;10469;42.720;23.252;2023-01-31T01:20:12;94444.78;;;-0.47;100.00
20620;BME280;10469;42.720;23.252;2023-01-31T01:22:38;94447.16;;;-0.37;100.00
20620;BME280;10469;42.720;23.252;2023-01-31T01:25:04;94441.06;;;-0.38;100.00
20620;BME280;10469;42.720;23.252;2023-01-31T01:27:30;94440.50;;;-0.48;100.00
20620;BME280;10469;42.720;23.252;2023-01-31T01:29:55;94439.41;;;-0.54;100.00
20620;BME280;10469;42.720;23.252;2023-01-31T01:32:21;94444.47;;;-0.52;100.00
20620;BME280;10469;42.720;23.252;2023-01-31T01:34:46;94449.25;;;-0.33;100.00
20620;BME280;10469;42.720;23.252;2023-01-31T01:37:11;94442.97;;;-0.32;100.00
20620;BME280;10469;42.720;23.252;2023-01-31T01:39:47;94452.22;;;-0.36;100.00
20620;BME280;10469;42.720;23.252;2023-01-31T01:42:15;94445.25;;;-0.29;100.00
20620;BME280;10469;42.720;23.252;2023-01-31T01:50:47;94460.44;;;-0.01;100.00
20620;BME280;10469;42.720;23.252;2023-01-31T01:52:55;94421.09;;;-0.03;100.00
20620;BME280;10469;42.720;23.252;2023-01-31T01:55:27;94447.72;;;0.17;100.00
20620;BME280;10469;42.720;23.252;2023-01-31T01:58:00;94440.91;;;0.23;100.00
20620;BME280;10469;42.720;23.252;2023-01-31T02:00:29;94445.81;;;0.11;100.00
20620;BME280;10469;42.720;23.252;2023-01-31T02:02:58;94438.16;;;0.16;100.00
20620;BME280;10469;42.720;23.252;2023-01-31T02:05:30;94458.38;;;0.09;100.00
20620;BME280;10469;42.720;23.252;2023-01-31T02:07:57;94463.91;;;0.14;100.00
20620;BME280;10469;42.720;23.252;2023-01-31T02:10:39;94461.44;;;-0.02;100.00
20620;BME280;10469;42.720;23.252;2023-01-31T02:13:06;94466.63;;;0.06;100.00
20620;BME280;10469;42.720;23.252;2023-01-31T02:15:33;94449.00;;;0.07;100.00
20620;BME280;10469;42.720;23.252;2023-01-31T02:17:58;94451.44;;;0.08;100.00
20620;BME280;10469;42.720;23.252;2023-01-31T02:23:22;94454.97;;;-0.14;100.00
20620;BME280;10469;42.720;23.252;2023-01-31T02:26:44;94447.09;;;0.01;100.00
20620;BME280;10469;42.720;23.252;2023-01-31T02:29:24;94447.25;;;-0.01;100.00
20620;BME280;10469;42.720;23.252;2023-01-31T02:37:53;94455.63;;;0.03;100.00
20620;BME280;10469;42.720;23.252;2023-01-31T02:45:34;94445.44;;;0.14;100.00
20620;BME280;10469;42.720;23.252;2023-01-31T02:48:13;94453.50;;;0.13;100.00
20620;BME280;10469;42.720;23.252;2023-01-31T02:53:35;94473.00;;;-0.03;100.00
20620;BME280;10469;42.720;23.252;2023-01-31T02:56:21;94493.78;;;0.21;100.00
20620;BME280;10469;42.720;23.252;2023-01-31T02:58:53;94481.09;;;0.10;100.00
20620;BME280;10469;42.720;23.252;2023-01-31T03:01:25;94498.06;;;-0.07;100.00
20620;BME280;10469;42.720;23.252;2023-01-31T03:03:56;94501.66;;;-0.38;100.00
20620;BME280;10469;42.720;23.252;2023-01-31T03:08:54;94508.19;;;-0.71;100.00
20620;BME280;10469;42.720;23.252;2023-01-31T03:11:26;94518.66;;;-0.63;100.00
20620;BME280;10469;42.720;23.252;2023-01-31T03:14:22;94524.69;;;-0.55;100.00
20620;BME280;10469;42.720;23.252;2023-01-31T03:17:11;94520.34;;;-0.47;100.00
20620;BME280;10469;42.720;23.252;2023-01-31T03:20:10;94526.66;;;-0.34;100.00
20620;BME280;10469;42.720;23.252;2023-01-31T03:22:44;94522.47;;;-0.43;100.00
20620;BME280;10469;42.720;23.252;2023-01-31T03:25:12;94535.72;;;-0.36;100.00
20620;BME280;10469;42.720;23.252;2023-01-31T03:27:41;94534.63;;;-0.42;100.00
20620;BME280;10469;42.720;23.252;2023-01-31T03:30:16;94532.00;;;-0.42;100.00
20620;BME280;10469;42.720;23.252;2023-01-31T03:32:48;94525.63;;;-0.47;100.00
20620;BME280;10469;42.720;23.252;2023-01-31T03:35:14;94532.53;;;-0.46;100.00
20620;BME280;10469;42.720;23.252;2023-01-31T03:38:03;94533.28;;;-0.38;100.00
20620;BME280;10469;42.720;23.252;2023-01-31T03:40:33;94532.63;;;-0.40;100.00
20620;BME280;10469;42.720;23.252;2023-01-31T03:45:48;94551.88;;;-0.39;100.00
20620;BME280;10469;42.720;23.252;2023-01-31T03:48:16;94538.69;;;-0.39;100.00
20620;BME280;10469;42.720;23.252;2023-01-31T03:50:51;94543.16;;;-0.40;100.00
20620;BME280;10469;42.720;23.252;2023-01-31T03:53:31;94556.16;;;-0.38;100.00
20620;BME280;10469;42.720;23.252;2023-01-31T03:58:40;94548.88;;;-0.36;100.00
20620;BME280;10469;42.720;23.252;2023-01-31T04:01:08;94556.59;;;-0.35;100.00
20620;BME280;10469;42.720;23.252;2023-01-31T04:03:41;94535.22;;;-0.55;100.00
20620;BME280;10469;42.720;23.252;2023-01-31T04:06:08;94554.69;;;-0.41;100.00
20620;BME280;10469;42.720;23.252;2023-01-31T04:08:35;94566.84;;;-0.40;100.00
20620;BME280;10469;42.720;23.252;2023-01-31T04:11:05;94578.75;;;-0.44;100.00
20620;BME280;10469;42.720;23.252;2023-01-31T04:13:33;94569.22;;;-0.45;100.00
20620;BME280;10469;42.720;23.252;2023-01-31T04:15:59;94575.22;;;-0.36;100.00
20620;BME280;10469;42.720;23.252;2023-01-31T04:18:24;94590.44;;;-0.23;100.00
20620;BME280;10469;42.720;23.252;2023-01-31T04:20:50;94575.81;;;-0.26;100.00
20620;BME280;10469;42.720;23.252;2023-01-31T04:23:15;94584.38;;;-0.24;100.00
20620;BME280;10469;42.720;23.252;2023-01-31T04:25:43;94582.44;;;-0.30;100.00
20620;BME280;10469;42.720;23.252;2023-01-31T04:28:08;94599.34;;;-0.24;100.00
20620;BME280;10469;42.720;23.252;2023-01-31T04:30:34;94601.53;;;-0.28;100.00
20620;BME280;10469;42.720;23.252;2023-01-31T04:33:00;94600.41;;;-0.34;100.00
20620;BME280;10469;42.720;23.252;2023-01-31T04:35:25;94592.50;;;-0.34;100.00
20620;BME280;10469;42.720;23.252;2023-01-31T04:37:50;94583.84;;;-0.42;100.00
20620;BME280;10469;42.720;23.252;2023-01-31T04:40:16;94591.63;;;-0.49;100.00
20620;BME280;10469;42.720;23.252;2023-01-31T04:42:42;94586.69;;;-0.52;100.00
20620;BME280;10469;42.720;23.252;2023-01-31T04:45:07;94585.44;;;-0.56;100.00
20620;BME280;10469;42.720;23.252;2023-01-31T04:47:33;94592.28;;;-0.47;100.00
20620;BME280;10469;42.720;23.252;2023-01-31T04:49:59;94606.44;;;-0.48;100.00
20620;BME280;10469;42.720;23.252;2023-01-31T04:52:24;94605.13;;;-0.52;100.00
20620;BME280;10469;42.720;23.252;2023-01-31T04:54:50;94609.72;;;-0.46;100.00
20620;BME280;10469;42.720;23.252;2023-01-31T04:57:15;94612.00;;;-0.43;100.00
20620;BME280;10469;42.720;23.252;2023-01-31T04:59:40;94596.91;;;-0.49;100.00
20620;BME280;10469;42.720;23.252;2023-01-31T05:02:06;94613.03;;;-0.52;100.00
20620;BME280;10469;42.720;23.252;2023-01-31T05:04:32;94611.53;;;-0.46;100.00
20620;BME280;10469;42.720;23.252;2023-01-31T05:06:57;94603.81;;;-0.25;100.00
20620;BME280;10469;42.720;23.252;2023-01-31T05:09:23;94595.06;;;-0.03;100.00
20620;BME280;10469;42.720;23.252;2023-01-31T05:11:49;94603.56;;;-0.15;100.00
20620;BME280;10469;42.720;23.252;2023-01-31T05:14:15;94605.13;;;-0.06;100.00
20620;BME280;10469;42.720;23.252;2023-01-31T05:16:41;94610.06;;;-0.03;100.00
20620;BME280;10469;42.720;23.252;2023-01-31T05:19:09;94621.94;;;0.31;100.00
20620;BME280;10469;42.720;23.252;2023-01-31T05:21:35;94622.91;;;0.30;100.00
20620;BME280;10469;42.720;23.252;2023-01-31T05:24:19;94622.66;;;0.24;100.00
20620;BME280;10469;42.720;23.252;2023-01-31T05:26:45;94607.41;;;0.35;100.00
20620;BME280;10469;42.720;23.252;2023-01-31T05:29:12;94615.31;;;0.49;100.00
20620;BME280;10469;42.720;23.252;2023-01-31T05:31:37;94615.94;;;0.37;100.00
20620;BME280;10469;42.720;23.252;2023-01-31T05:34:03;94616.94;;;0.36;100.00
20620;BME280;10469;42.720;23.252;2023-01-31T05:36:28;94618.66;;;0.29;100.00
20620;BME280;10469;42.720;23.252;2023-01-31T05:38:53;94620.19;;;0.23;100.00
20620;BME280;10469;42.720;23.252;2023-01-31T05:41:19;94623.53;;;0.17;100.00
20620;BME280;10469;42.720;23.252;2023-01-31T05:43:44;94609.25;;;0.11;100.00
20620;BME280;10469;42.720;23.252;2023-01-31T05:46:10;94620.75;;;0.18;100.00
20620;BME280;10469;42.720;23.252;2023-01-31T05:48:35;94620.34;;;0.21;100.00
20620;BME280;10469;42.720;23.252;2023-01-31T05:51:00;94610.13;;;0.27;100.00
20620;BME280;10469;42.720;23.252;2023-01-31T05:53:26;94605.63;;;0.12;100.00
20620;BME280;10469;42.720;23.252;2023-01-31T05:55:51;94627.28;;;0.22;100.00
20620;BME280;10469;42.720;23.252;2023-01-31T05:58:17;94627.22;;;0.31;100.00
20620;BME280;10469;42.720;23.252;2023-01-31T06:00:43;94635.28;;;0.29;100.00
20620;BME280;10469;42.720;23.252;2023-01-31T06:03:09;94630.75;;;0.38;100.00
20620;BME280;10469;42.720;23.252;2023-01-31T06:05:34;94623.97;;;0.43;100.00
20620;BME280;10469;42.720;23.252;2023-01-31T06:08:00;94613.75;;;0.40;100.00
20620;BME280;10469;42.720;23.252;2023-01-31T06:10:25;94633.97;;;0.48;100.00
20620;BME280;10469;42.720;23.252;2023-01-31T06:12:51;94636.31;;;0.43;100.00
20620;BME280;10469;42.720;23.252;2023-01-31T06:15:16;94629.13;;;0.37;100.00
20620;BME280;10469;42.720;23.252;2023-01-31T06:17:42;94626.75;;;0.42;100.00
20620;BME280;10469;42.720;23.252;2023-01-31T06:20:08;94642.94;;;0.39;100.00
20620;BME280;10469;42.720;23.252;2023-01-31T06:22:33;94632.78;;;0.36;100.00
20620;BME280;10469;42.720;23.252;2023-01-31T06:24:59;94636.31;;;0.43;100.00
20620;BME280;10469;42.720;23.252;2023-01-31T06:27:24;94645.97;;;0.36;100.00
20620;BME280;10469;42.720;23.252;2023-01-31T06:29:50;94648.59;;;0.50;100.00
20620;BME280;10469;42.720;23.252;2023-01-31T06:32:15;94644.41;;;0.56;100.00
20620;BME280;10469;42.720;23.252;2023-01-31T06:34:42;94649.88;;;0.55;100.00
20620;BME280;10469;42.720;23.252;2023-01-31T06:37:08;94650.78;;;0.47;100.00
20620;BME280;10469;42.720;23.252;2023-01-31T06:39:35;94647.34;;;0.61;100.00
20620;BME280;10469;42.720;23.252;2023-01-31T06:42:01;94654.34;;;0.54;100.00
20620;BME280;10469;42.720;23.252;2023-01-31T06:44:26;94642.06;;;0.46;100.00
20620;BME280;10469;42.720;23.252;2023-01-31T06:46:52;94647.72;;;0.58;100.00
20620;BME280;10469;42.720;23.252;2023-01-31T06:49:17;94650.06;;;0.68;100.00
20620;BME280;10469;42.720;23.252;2023-01-31T06:51:43;94650.09;;;0.83;100.00
20620;BME280;10469;42.720;23.252;2023-01-31T06:54:08;94647.09;;;1.00;100.00
20620;BME280;10469;42.720;23.252;2023-01-31T06:56:34;94642.97;;;0.98;100.00
20620;BME280;10469;42.720;23.252;2023-01-31T06:58:59;94641.97;;;1.14;100.00
20620;BME280;10469;42.720;23.252;2023-01-31T07:01:24;94645.88;;;1.03;100.00
20620;BME280;10469;42.720;23.252;2023-01-31T07:03:51;94645.31;;;1.08;100.00
20620;BME280;10469;42.720;23.252;2023-01-31T07:06:16;94631.16;;;0.94;100.00
20620;BME280;10469;42.720;23.252;2023-01-31T07:08:45;94652.25;;;1.23;100.00
20620;BME280;10469;42.720;23.252;2023-01-31T07:11:10;94656.59;;;1.16;100.00
20620;BME280;10469;42.720;23.252;2023-01-31T07:13:36;94643.97;;;1.12;100.00
20620;BME280;10469;42.720;23.252;2023-01-31T07:16:01;94653.38;;;0.99;100.00
20620;BME280;10469;42.720;23.252;2023-01-31T07:18:26;94650.06;;;1.12;100.00
20620;BME280;10469;42.720;23.252;2023-01-31T07:20:52;94647.31;;;1.20;100.00
20620;BME280;10469;42.720;23.252;2023-01-31T07:23:17;94662.63;;;1.10;100.00
20620;BME280;10469;42.720;23.252;2023-01-31T07:25:43;94655.88;;;1.08;100.00
20620;BME280;10469;42.720;23.252;2023-01-31T07:28:08;94646.34;;;1.07;100.00
20620;BME280;10469;42.720;23.252;2023-01-31T07:30:35;94666.25;;;1.24;100.00
20620;BME280;10469;42.720;23.252;2023-01-31T07:33:00;94666.91;;;1.26;100.00
20620;BME280;10469;42.720;23.252;2023-01-31T07:35:27;94666.72;;;1.28;100.00
20620;BME280;10469;42.720;23.252;2023-01-31T07:37:52;94651.72;;;1.13;100.00
20620;BME280;10469;42.720;23.252;2023-01-31T07:40:18;94663.97;;;1.36;100.00
20620;BME280;10469;42.720;23.252;2023-01-31T07:42:44;94661.19;;;1.22;100.00
20620;BME280;10469;42.720;23.252;2023-01-31T07:45:11;94676.00;;;1.38;100.00
20620;BME280;10469;42.720;23.252;2023-01-31T07:47:37;94685.38;;;1.41;100.00
20620;BME280;10469;42.720;23.252;2023-01-31T07:50:03;94672.97;;;1.41;100.00
20620;BME280;10469;42.720;23.252;2023-01-31T07:52:30;94668.84;;;1.54;100.00
20620;BME280;10469;42.720;23.252;2023-01-31T07:54:56;94657.56;;;1.45;100.00
20620;BME280;10469;42.720;23.252;2023-01-31T07:57:22;94671.84;;;1.50;100.00
20620;BME280;10469;42.720;23.252;2023-01-31T07:59:47;94690.66;;;1.56;100.00
20620;BME280;10469;42.720;23.252;2023-01-31T08:02:15;94684.97;;;1.59;100.00
20620;BME280;10469;42.720;23.252;2023-01-31T08:04:59;94670.28;;;1.35;100.00
20620;BME280;10469;42.720;23.252;2023-01-31T08:07:26;94680.81;;;1.86;100.00
20620;BME280;10469;42.720;23.252;2023-01-31T08:09:51;94665.13;;;1.84;100.00
20620;BME280;10469;42.720;23.252;2023-01-31T08:12:17;94678.16;;;2.07;100.00
20620;BME280;10469;42.720;23.252;2023-01-31T08:14:43;94671.31;;;2.13;100.00
20620;BME280;10469;42.720;23.252;2023-01-31T08:17:08;94683.38;;;2.22;100.00
20620;BME280;10469;42.720;23.252;2023-01-31T08:19:34;94684.00;;;2.73;100.00
20620;BME280;10469;42.720;23.252;2023-01-31T08:22:01;94681.81;;;2.77;100.00
20620;BME280;10469;42.720;23.252;2023-01-31T08:24:27;94662.19;;;3.06;100.00
20620;BME280;10469;42.720;23.252;2023-01-31T08:26:52;94655.06;;;4.16;100.00
20620;BME280;10469;42.720;23.252;2023-01-31T08:29:19;94653.25;;;4.49;100.00
20620;BME280;10469;42.720;23.252;2023-01-31T08:31:44;94666.88;;;5.06;100.00
20620;BME280;10469;42.720;23.252;2023-01-31T08:34:11;94650.75;;;4.08;100.00
20620;BME280;10469;42.720;23.252;2023-01-31T08:36:36;94650.69;;;3.82;100.00
20620;BME280;10469;42.720;23.252;2023-01-31T08:39:02;94655.03;;;4.22;100.00
20620;BME280;10469;42.720;23.252;2023-01-31T08:41:29;94631.47;;;3.66;100.00
20620;BME280;10469;42.720;23.252;2023-01-31T08:43:55;94647.06;;;3.96;100.00
20620;BME280;10469;42.720;23.252;2023-01-31T08:46:23;94646.47;;;4.73;100.00
20620;BME280;10469;42.720;23.252;2023-01-31T08:48:48;94649.63;;;5.35;100.00
20620;BME280;10469;42.720;23.252;2023-01-31T08:51:14;94659.81;;;5.45;100.00
20620;BME280;10469;42.720;23.252;2023-01-31T08:53:41;94661.63;;;5.51;100.00
20620;BME280;10469;42.720;23.252;2023-01-31T08:56:08;94634.66;;;7.72;100.00
20620;BME280;10469;42.720;23.252;2023-01-31T08:58:35;94648.47;;;6.71;100.00
20620;BME280;10469;42.720;23.252;2023-01-31T09:01:03;94653.06;;;9.06;100.00
20620;BME280;10469;42.720;23.252;2023-01-31T09:03:28;94645.03;;;9.29;100.00
20620;BME280;10469;42.720;23.252;2023-01-31T09:06:00;94661.91;;;9.42;100.00
20620;BME280;10469;42.720;23.252;2023-01-31T09:08:26;94650.13;;;8.84;100.00
20620;BME280;10469;42.720;23.252;2023-01-31T09:10:53;94661.34;;;6.49;100.00
20620;BME280;10469;42.720;23.252;2023-01-31T09:13:19;94650.34;;;8.71;100.00
20620;BME280;10469;42.720;23.252;2023-01-31T09:15:44;94644.28;;;7.92;100.00
20620;BME280;10469;42.720;23.252;2023-01-31T09:18:10;94634.59;;;8.09;100.00
20620;BME280;10469;42.720;23.252;2023-01-31T09:20:35;94647.78;;;5.87;100.00
20620;BME280;10469;42.720;23.252;2023-01-31T09:23:01;94637.53;;;6.54;100.00
20620;BME280;10469;42.720;23.252;2023-01-31T09:25:26;94644.31;;;7.00;100.00
20620;BME280;10469;42.720;23.252;2023-01-31T09:27:52;94646.09;;;5.99;100.00
20620;BME280;10469;42.720;23.252;2023-01-31T09:30:18;94633.31;;;6.15;100.00
20620;BME280;10469;42.720;23.252;2023-01-31T09:32:43;94638.19;;;5.79;100.00
20620;BME280;10469;42.720;23.252;2023-01-31T09:35:13;94611.88;;;7.40;100.00
20620;BME280;10469;42.720;23.252;2023-01-31T09:37:40;94616.56;;;6.08;100.00
20620;BME280;10469;42.720;23.252;2023-01-31T09:40:13;94608.75;;;6.88;100.00
20620;BME280;10469;42.720;23.252;2023-01-31T09:42:42;94613.75;;;5.51;100.00
20620;BME280;10469;42.720;23.252;2023-01-31T09:45:27;94620.47;;;7.05;100.00
20620;BME280;10469;42.720;23.252;2023-01-31T09:47:56;94605.28;;;8.74;100.00
20620;BME280;10469;42.720;23.252;2023-01-31T09:50:35;94601.19;;;8.18;100.00
20620;BME280;10469;42.720;23.252;2023-01-31T09:53:04;94609.94;;;7.47;100.00
20620;BME280;10469;42.720;23.252;2023-01-31T10:07:05;94599.66;;;9.23;100.00
20620;BME280;10469;42.720;23.252;2023-01-31T10:09:39;94599.69;;;8.99;100.00
20620;BME280;10469;42.720;23.252;2023-01-31T10:15:01;94595.25;;;9.80;100.00
20620;BME280;10469;42.720;23.252;2023-01-31T10:17:39;94581.31;;;8.79;100.00
20620;BME280;10469;42.720;23.252;2023-01-31T10:20:15;94579.91;;;8.89;100.00
20620;BME280;10469;42.720;23.252;2023-01-31T10:25:25;94572.88;;;7.87;100.00
20620;BME280;10469;42.720;23.252;2023-01-31T10:30:35;94592.19;;;6.36;100.00
20620;BME280;10469;42.720;23.252;2023-01-31T10:33:27;94583.69;;;5.50;100.00
20620;BME280;10469;42.720;23.252;2023-01-31T10:35:57;94589.72;;;4.08;100.00
20620;BME280;10469;42.720;23.252;2023-01-31T10:38:31;94593.38;;;4.60;100.00
20620;BME280;10469;42.720;23.252;2023-01-31T10:41:10;94584.69;;;5.11;100.00
20620;BME280;10469;42.720;23.252;2023-01-31T10:43:56;94580.34;;;6.32;100.00
20620;BME280;10469;42.720;23.252;2023-01-31T10:46:24;94580.41;;;5.10;100.00
20620;BME280;10469;42.720;23.252;2023-01-31T10:48:50;94585.81;;;5.73;100.00
20620;BME280;10469;42.720;23.252;2023-01-31T10:54:21;94579.78;;;5.08;100.00
20620;BME280;10469;42.720;23.252;2023-01-31T10:56:50;94572.44;;;5.87;100.00
20620;BME280;10469;42.720;23.252;2023-01-31T10:59:45;94596.84;;;4.67;100.00
20620;BME280;10469;42.720;23.252;2023-01-31T11:02:20;94595.84;;;4.22;100.00
20620;BME280;10469;42.720;23.252;2023-01-31T11:04:49;94589.03;;;5.50;100.00
20620;BME280;10469;42.720;23.252;2023-01-31T11:07:14;94577.75;;;5.93;100.00
20620;BME280;10469;42.720;23.252;2023-01-31T11:09:43;94583.91;;;4.97;100.00
20620;BME280;10469;42.720;23.252;2023-01-31T11:12:12;94596.84;;;4.14;100.00
20620;BME280;10469;42.720;23.252;2023-01-31T11:14:38;94586.44;;;3.93;100.00
20620;BME280;10469;42.720;23.252;2023-01-31T11:17:13;94599.38;;;3.35;100.00
20620;BME280;10469;42.720;23.252;2023-01-31T11:19:44;94601.84;;;3.49;100.00
20620;BME280;10469;42.720;23.252;2023-01-31T11:22:30;94613.63;;;2.86;100.00
20620;BME280;10469;42.720;23.252;2023-01-31T11:24:57;94622.75;;;2.76;100.00
20620;BME280;10469;42.720;23.252;2023-01-31T11:27:42;94619.25;;;2.76;100.00
20620;BME280;10469;42.720;23.252;2023-01-31T11:30:26;94618.28;;;2.84;100.00
20620;BME280;10469;42.720;23.252;2023-01-31T11:32:52;94600.88;;;3.03;100.00
20620;BME280;10469;42.720;23.252;2023-01-31T11:40:39;94609.81;;;2.11;100.00
20620;BME280;10469;42.720;23.252;2023-01-31T11:43:23;94625.91;;;2.09;100.00
20620;BME280;10469;42.720;23.252;2023-01-31T11:45:55;94617.66;;;1.97;100.00
20620;BME280;10469;42.720;23.252;2023-01-31T11:48:24;94601.44;;;2.07;100.00
20620;BME280;10469;42.720;23.252;2023-01-31T11:50:58;94611.47;;;2.40;100.00
20620;BME280;10469;42.720;23.252;2023-01-31T11:56:19;94614.66;;;2.07;100.00
20620;BME280;10469;42.720;23.252;2023-01-31T11:58:51;94616.81;;;2.18;100.00
20620;BME280;10469;42.720;23.252;2023-01-31T12:01:20;94608.69;;;1.98;100.00
20620;BME280;10469;42.720;23.252;2023-01-31T12:03:58;94606.63;;;1.94;100.00
20620;BME280;10469;42.720;23.252;2023-01-31T12:06:54;94612.47;;;2.11;100.00
20620;BME280;10469;42.720;23.252;2023-01-31T12:09:24;94604.63;;;2.24;100.00
20620;BME280;10469;42.720;23.252;2023-01-31T12:14:21;94607.38;;;2.37;100.00
20620;BME280;10469;42.720;23.252;2023-01-31T12:16:52;94603.25;;;2.28;100.00
20620;BME280;10469;42.720;23.252;2023-01-31T12:19:54;94610.41;;;2.06;100.00
20620;BME280;10469;42.720;23.252;2023-01-31T12:22:36;94606.09;;;2.26;100.00
20620;BME280;10469;42.720;23.252;2023-01-31T12:25:24;94605.38;;;1.90;100.00
20620;BME280;10469;42.720;23.252;2023-01-31T12:28:16;94609.59;;;2.06;100.00
20620;BME280;10469;42.720;23.252;2023-01-31T12:31:21;94601.97;;;2.17;100.00
20620;BME280;10469;42.720;23.252;2023-01-31T12:33:57;94597.66;;;2.44;100.00
20620;BME280;10469;42.720;23.252;2023-01-31T12:36:39;94595.63;;;2.12;100.00
20620;BME280;10469;42.720;23.252;2023-01-31T12:41:40;94603.09;;;2.08;100.00
20620;BME280;10469;42.720;23.252;2023-01-31T12:44:41;94597.66;;;2.38;100.00
20620;BME280;10469;42.720;23.252;2023-01-31T12:58:29;94593.44;;;2.50;100.00
20620;BME280;10469;42.720;23.252;2023-01-31T13:01:18;94595.59;;;2.40;100.00
20620;BME280;10469;42.720;23.252;2023-01-31T13:06:47;94596.25;;;2.42;100.00
20620;BME280;10469;42.720;23.252;2023-01-31T13:09:22;94603.22;;;2.21;100.00
20620;BME280;10469;42.720;23.252;2023-01-31T13:14:29;94590.59;;;2.23;100.00
20620;BME280;10469;42.720;23.252;2023-01-31T13:16:59;94582.44;;;2.46;100.00
20620;BME280;10469;42.720;23.252;2023-01-31T13:19:40;94602.34;;;2.42;100.00
20620;BME280;10469;42.720;23.252;2023-01-31T13:22:19;94617.78;;;2.39;100.00
20620;BME280;10469;42.720;23.252;2023-01-31T13:24:48;94609.94;;;2.52;100.00
20620;BME280;10469;42.720;23.252;2023-01-31T13:27:34;94606.09;;;2.26;100.00
20620;BME280;10469;42.720;23.252;2023-01-31T13:30:05;94601.78;;;2.47;100.00
20620;BME280;10469;42.720;23.252;2023-01-31T13:32:43;94605.16;;;2.34;100.00
20620;BME280;10469;42.720;23.252;2023-01-31T13:35:30;94601.38;;;2.50;100.00
20620;BME280;10469;42.720;23.252;2023-01-31T13:38:06;94613.34;;;2.46;100.00
20620;BME280;10469;42.720;23.252;2023-01-31T13:40:37;94623.38;;;2.50;100.00
20620;BME280;10469;42.720;23.252;2023-01-31T13:43:13;94626.53;;;2.39;100.00
20620;BME280;10469;42.720;23.252;2023-01-31T13:45:45;94624.66;;;2.61;100.00
20620;BME280;10469;42.720;23.252;2023-01-31T13:51:01;94611.56;;;2.53;100.00
20620;BME280;10469;42.720;23.252;2023-01-31T13:53:38;94609.81;;;2.60;100.00
20620;BME280;10469;42.720;23.252;2023-01-31T13:56:09;94615.31;;;2.65;100.00
20620;BME280;10469;42.720;23.252;2023-01-31T13:58:42;94621.63;;;2.64;100.00
20620;BME280;10469;42.720;23.252;2023-01-31T14:01:14;94629.44;;;2.44;100.00
20620;BME280;10469;42.720;23.252;2023-01-31T14:06:55;94629.88;;;2.48;100.00
20620;BME280;10469;42.720;23.252;2023-01-31T14:09:29;94631.19;;;2.09;100.00
20620;BME280;10469;42.720;23.252;2023-01-31T14:12:41;94632.47;;;2.20;100.00
20620;BME280;10469;42.720;23.252;2023-01-31T14:14:48;94638.66;;;2.27;100.00
20620;BME280;10469;42.720;23.252;2023-01-31T14:56:34;94660.81;;;1.62;100.00
20620;BME280;10469;42.720;23.252;2023-01-31T14:59:04;94673.97;;;1.76;100.00
20620;BME280;10469;42.720;23.252;2023-01-31T15:01:44;94674.84;;;1.62;100.00
20620;BME280;10469;42.720;23.252;2023-01-31T15:04:18;94687.28;;;1.47;100.00
20620;BME280;10469;42.720;23.252;2023-01-31T15:06:48;94681.72;;;1.42;100.00
20620;BME280;10469;42.720;23.252;2023-01-31T15:11:47;94685.84;;;1.30;100.00
20620;BME280;10469;42.720;23.252;2023-01-31T15:17:21;94694.13;;;1.27;100.00